Time;durP1;ratioP1;P1;durP2;ratioP2;P2;SDS_P1;SDS_P2;PMS_P1;PMS_P2;Temp;Humidity;BMP_temperature;BMP_pressure;BME280_temperature;BME280_humidity;BME280_pressure;Samples;Min_cycle;Max_cycle;Signal;HPM_P1;HPM_P2
2023/01/28 10:20:10;;;;;;;16.60;10.38;;;;;;;;;;5085034;23;20054;-90
2023/01/28 10:22:45;;;;;;;16.20;9.73;;;;;;;;;;4931022;29;20098;-92
2023/01/28 10:25:18;;;;;;;15.43;10.07;;;;;;;;;;4941809;29;20050;-96
2023/01/28 10:27:45;;;;;;;16.50;10.52;;;;;;;;;;4944161;29;20031;-96
2023/01/28 10:30:25;;;;;;;14.30;9.48;;;;;;;;;;4943915;29;20027;-93
2023/01/28 10:33:00;;;;;;;14.77;9.68;;;;;;;;;;4941616;29;20054;-93
2023/01/28 10:35:26;;;;;;;15.73;9.13;;;;;;;;;;4923356;29;20094;-93
2023/01/28 10:38:00;;;;;;;13.40;9.55;;;;;;;;;;4931839;29;20096;-93
2023/01/28 10:40:25;;;;;;;14.75;8.60;;;;;;;;;;4923909;29;20027;-93
2023/01/28 10:42:51;;;;;;;12.50;8.55;;;;;;;;;;4949629;29;20054;-93
2023/01/28 10:45:19;;;;;;;13.13;8.50;;;;;;;;;;4941303;29;20061;-92
2023/01/28 10:48:08;;;;;;;11.63;8.13;;;;;;;;;;4941214;29;20122;-94
2023/01/28 10:50:37;;;;;;;9.57;6.90;;;;;;;;;;4925331;29;20031;-94
2023/01/28 10:53:05;;;;;;;11.82;7.45;;;;;;;;;;4932543;29;20028;-93
2023/01/28 10:55:57;;;;;;;11.13;7.03;;;;;;;;;;4937541;29;20027;-94
2023/01/28 10:58:25;;;;;;;9.73;6.55;;;;;;;;;;4941177;29;20023;-93
2023/01/28 11:00:58;;;;;;;10.13;6.90;;;;;;;;;;4941050;29;20139;-93
2023/01/28 11:03:29;;;;;;;10.35;7.28;;;;;;;;;;4943763;29;20027;-96
2023/01/28 11:05:57;;;;;;;11.38;7.57;;;;;;;;;;4964051;29;20031;-96
2023/01/28 11:08:26;;;;;;;11.52;7.45;;;;;;;;;;4928323;29;20036;-96
2023/01/28 11:10:52;;;;;;;9.40;7.10;;;;;;;;;;4934528;28;20028;-96
2023/01/28 11:13:29;;;;;;;10.07;7.28;;;;;;;;;;4943003;29;20102;-95
2023/01/28 11:16:05;;;;;;;8.80;7.03;;;;;;;;;;4941922;29;20031;-95
2023/01/28 11:18:39;;;;;;;10.90;7.18;;;;;;;;;;4941853;29;20027;-94
2023/01/28 11:21:17;;;;;;;10.80;7.18;;;;;;;;;;4956025;29;20478;-94
2023/01/28 11:24:03;;;;;;;10.65;7.28;;;;;;;;;;4956809;29;20565;-96
2023/01/28 11:26:34;;;;;;;8.45;6.50;;;;;;;;;;4954272;29;20023;-91
2023/01/28 11:28:59;;;;;;;9.80;6.82;;;;;;;;;;4948907;29;20027;-87
2023/01/28 11:31:25;;;;;;;9.15;6.30;;;;;;;;;;4956826;29;20134;-85
2023/01/28 11:33:57;;;;;;;8.02;5.95;;;;;;;;;;4956932;28;20031;-87
2023/01/28 11:36:33;;;;;;;7.80;6.18;;;;;;;;;;4957187;28;20027;-86
2023/01/28 11:39:24;;;;;;;9.05;5.70;;;;;;;;;;4957033;28;20026;-85
2023/01/28 11:41:51;;;;;;;7.78;5.93;;;;;;;;;;4956805;28;20042;-83
2023/01/28 11:44:21;;;;;;;6.68;5.13;;;;;;;;;;4956920;28;20050;-84
2023/01/28 11:47:01;;;;;;;7.80;5.65;;;;;;;;;;4956580;28;20027;-84
2023/01/28 11:49:30;;;;;;;7.95;5.40;;;;;;;;;;4956125;28;20030;-84
2023/01/28 11:52:27;;;;;;;7.00;5.40;;;;;;;;;;4956610;29;20031;-85
2023/01/28 11:55:16;;;;;;;6.10;4.57;;;;;;;;;;4956261;28;20057;-85
2023/01/28 11:58:06;;;;;;;8.18;5.97;;;;;;;;;;4956590;29;20448;-86
2023/01/28 12:00:58;;;;;;;6.72;5.03;;;;;;;;;;4952208;29;20034;-85
2023/01/28 12:03:42;;;;;;;8.15;5.68;;;;;;;;;;4933742;28;20047;-86
2023/01/28 12:06:18;;;;;;;6.60;4.95;;;;;;;;;;4955981;28;20026;-85
2023/01/28 12:08:47;;;;;;;7.97;5.60;;;;;;;;;;4956268;28;20073;-84
2023/01/28 12:14:34;;;;;;;7.10;5.40;;;;;;;;;;4956385;29;19998;-85
2023/01/28 12:17:33;;;;;;;6.90;5.53;;;;;;;;;;4955999;28;20023;-83
2023/01/28 12:20:05;;;;;;;7.22;6.30;;;;;;;;;;4944334;29;20045;-83
2023/01/28 12:23:03;;;;;;;8.20;6.20;;;;;;;;;;4956240;29;20118;-85
2023/01/28 12:25:36;;;;;;;10.07;7.28;;;;;;;;;;4868759;29;20049;-87
2023/01/28 12:28:08;;;;;;;10.15;7.10;;;;;;;;;;4923351;29;20031;-85
2023/01/28 12:31:18;;;;;;;10.63;7.47;;;;;;;;;;4955888;29;20418;-87
2023/01/28 12:34:14;;;;;;;13.27;9.20;;;;;;;;;;4947677;29;20027;-87
2023/01/28 12:37:02;;;;;;;13.30;8.88;;;;;;;;;;4943708;29;20098;-86
2023/01/28 12:39:48;;;;;;;10.70;8.48;;;;;;;;;;4938488;29;20023;-87
2023/01/28 12:42:45;;;;;;;11.07;8.10;;;;;;;;;;4938592;29;20478;-87
2023/01/28 12:45:15;;;;;;;11.73;8.02;;;;;;;;;;4936622;28;20081;-86
2023/01/28 12:47:47;;;;;;;11.65;7.75;;;;;;;;;;4938232;29;20505;-87
2023/01/28 12:50:20;;;;;;;11.82;8.20;;;;;;;;;;4955657;29;20036;-87
2023/01/28 12:52:54;;;;;;;13.70;8.60;;;;;;;;;;4955600;29;20484;-87
2023/01/28 12:55:40;;;;;;;13.50;8.90;;;;;;;;;;4943233;29;20028;-91
2023/01/28 12:58:16;;;;;;;14.43;8.60;;;;;;;;;;4954691;28;20050;-87
2023/01/28 13:00:50;;;;;;;12.52;8.55;;;;;;;;;;4996668;23;20019;-90
2023/01/28 13:03:40;;;;;;;12.32;8.23;;;;;;;;;;4947108;28;20035;-87
2023/01/28 13:06:34;;;;;;;14.32;9.85;;;;;;;;;;4946994;29;20035;-89
2023/01/28 13:09:09;;;;;;;13.20;8.45;;;;;;;;;;4924387;29;20122;-92
2023/01/28 13:11:36;;;;;;;13.38;8.93;;;;;;;;;;4936066;29;20605;-89
2023/01/28 13:14:04;;;;;;;12.30;8.50;;;;;;;;;;4938364;29;20421;-91
2023/01/28 13:16:30;;;;;;;12.82;8.65;;;;;;;;;;4938557;29;20074;-91
2023/01/28 13:19:16;;;;;;;14.07;8.63;;;;;;;;;;4938495;29;20114;-93
2023/01/28 13:21:41;;;;;;;12.85;8.30;;;;;;;;;;4937995;29;20027;-90
2023/01/28 13:24:13;;;;;;;12.13;8.60;;;;;;;;;;4938412;29;20474;-90
2023/01/28 13:26:49;;;;;;;14.68;9.02;;;;;;;;;;4937954;29;20116;-93
2023/01/28 13:29:14;;;;;;;12.82;8.27;;;;;;;;;;4945441;29;20467;-91
2023/01/28 13:31:43;;;;;;;11.88;7.97;;;;;;;;;;4921698;29;20039;-91
2023/01/28 13:34:42;;;;;;;10.05;7.57;;;;;;;;;;4929870;29;20027;-93
2023/01/28 13:37:31;;;;;;;13.97;8.60;;;;;;;;;;4930371;29;20163;-92
2023/01/28 13:40:03;;;;;;;11.20;7.22;;;;;;;;;;4932673;29;20305;-89
2023/01/28 13:42:30;;;;;;;9.05;7.10;;;;;;;;;;4949161;29;20107;-92
2023/01/28 13:45:16;;;;;;;10.63;7.80;;;;;;;;;;4919413;29;20024;-92
2023/01/28 13:47:47;;;;;;;10.48;6.90;;;;;;;;;;4908054;29;20028;-92
2023/01/28 13:50:24;;;;;;;10.50;7.43;;;;;;;;;;4933190;29;20478;-93
2023/01/28 13:53:02;;;;;;;12.73;8.05;;;;;;;;;;4907345;29;20036;-93
2023/01/28 13:55:36;;;;;;;11.68;8.10;;;;;;;;;;4916586;29;20063;-93
2023/01/28 13:58:05;;;;;;;10.75;7.50;;;;;;;;;;4909509;29;20475;-95
2023/01/28 14:00:45;;;;;;;12.98;8.38;;;;;;;;;;4919210;29;20031;-94
2023/01/28 14:03:26;;;;;;;12.35;7.55;;;;;;;;;;4909487;29;20118;-94
2023/01/28 14:06:35;;;;;;;12.57;7.70;;;;;;;;;;4918948;29;20059;-95
2023/01/28 14:09:37;;;;;;;13.88;8.55;;;;;;;;;;4920555;29;20032;-92
2023/01/28 14:12:18;;;;;;;10.82;7.25;;;;;;;;;;4930338;29;20147;-94
2023/01/28 14:14:49;;;;;;;11.25;7.53;;;;;;;;;;4922349;29;20031;-92
2023/01/28 14:17:21;;;;;;;9.88;6.55;;;;;;;;;;4922750;29;20031;-91
2023/01/28 14:19:49;;;;;;;7.68;6.25;;;;;;;;;;4935996;29;20051;-94
2023/01/28 14:22:18;;;;;;;9.02;6.18;;;;;;;;;;4922903;29;20027;-90
2023/01/28 14:24:44;;;;;;;8.25;6.30;;;;;;;;;;4935280;29;20123;-88
2023/01/28 14:27:18;;;;;;;10.40;7.07;;;;;;;;;;4948466;29;20031;-89
2023/01/28 14:30:08;;;;;;;15.18;9.93;;;;;;;;;;4958244;29;20023;-89
2023/01/28 14:32:34;;;;;;;18.20;10.38;;;;;;;;;;4940877;29;20107;-94
2023/01/28 14:35:09;;;;;;;18.38;11.27;;;;;;;;;;4936537;29;20066;-88
2023/01/28 14:37:34;;;;;;;15.27;9.82;;;;;;;;;;4949890;29;20039;-89
2023/01/28 14:40:11;;;;;;;13.15;8.00;;;;;;;;;;4957952;29;20011;-91
2023/01/28 14:42:43;;;;;;;9.63;5.88;;;;;;;;;;4940646;29;20043;-90
2023/01/28 14:45:43;;;;;;;11.13;7.18;;;;;;;;;;4927384;29;20019;-93
2023/01/28 14:48:24;;;;;;;10.67;7.07;;;;;;;;;;4942153;29;20035;-89
2023/01/28 14:51:21;;;;;;;10.43;7.05;;;;;;;;;;4930350;29;20280;-84
2023/01/28 14:54:22;;;;;;;10.15;6.63;;;;;;;;;;4916873;29;20412;-89
2023/01/28 14:56:56;;;;;;;9.98;6.60;;;;;;;;;;4903854;29;20098;-85
2023/01/28 14:59:30;;;;;;;9.88;6.70;;;;;;;;;;4940495;29;20050;-89
2023/01/28 15:01:58;;;;;;;8.50;6.00;;;;;;;;;;4953111;29;20050;-90
2023/01/28 15:04:33;;;;;;;8.55;5.15;;;;;;;;;;4921380;29;20445;-90
2023/01/28 15:07:14;;;;;;;9.43;5.78;;;;;;;;;;4938264;29;20371;-90
2023/01/28 15:09:40;;;;;;;14.15;6.30;;;;;;;;;;4940126;29;20074;-89
2023/01/28 15:12:06;;;;;;;13.02;7.53;;;;;;;;;;4940345;29;20031;-89
2023/01/28 15:14:32;;;;;;;8.45;6.32;;;;;;;;;;4939892;29;20030;-85
2023/01/28 15:16:59;;;;;;;11.05;6.93;;;;;;;;;;4957500;28;20477;-91
2023/01/28 15:19:28;;;;;;;13.35;8.52;;;;;;;;;;4939999;29;20027;-90
2023/01/28 15:21:56;;;;;;;9.23;6.13;;;;;;;;;;4932251;29;20024;-91
2023/01/28 15:24:22;;;;;;;9.13;6.60;;;;;;;;;;4952594;29;20082;-93
2023/01/28 15:26:47;;;;;;;11.85;7.60;;;;;;;;;;4923600;29;20028;-93
2023/01/28 15:29:30;;;;;;;7.97;5.82;;;;;;;;;;4921456;29;20032;-93
2023/01/28 15:31:56;;;;;;;8.05;6.07;;;;;;;;;;4903160;29;20028;-95
2023/01/28 15:34:22;;;;;;;10.45;6.75;;;;;;;;;;4902495;29;20534;-92
2023/01/28 15:36:48;;;;;;;10.63;6.45;;;;;;;;;;4902189;29;20024;-89
2023/01/28 15:39:22;;;;;;;13.20;8.82;;;;;;;;;;4902432;29;20092;-89
2023/01/28 15:41:52;;;;;;;11.73;8.20;;;;;;;;;;4902336;29;20372;-91
2023/01/28 15:44:44;;;;;;;10.77;6.85;;;;;;;;;;4902500;29;20047;-93
2023/01/28 15:47:16;;;;;;;10.90;6.72;;;;;;;;;;4907996;29;20036;-92
2023/01/28 15:49:47;;;;;;;10.32;6.20;;;;;;;;;;4902677;29;20028;-92
2023/01/28 18:31:58;;;;;;;8.52;5.82;;;;;;;;;;5086281;23;20051;-94
2023/01/28 18:37:36;;;;;;;9.38;6.43;;;;;;;;;;5017063;23;20174;-96
2023/01/28 18:40:14;;;;;;;10.48;8.02;;;;;;;;;;4965988;28;20107;-94
2023/01/28 18:42:39;;;;;;;12.32;9.18;;;;;;;;;;4970914;28;20125;-93
2023/01/28 18:45:05;;;;;;;15.52;9.80;;;;;;;;;;4965000;28;20069;-96
2023/01/28 18:47:33;;;;;;;16.55;9.73;;;;;;;;;;4967422;28;20026;-95
2023/01/28 18:49:59;;;;;;;15.70;9.75;;;;;;;;;;4963589;28;20027;-96
2023/01/28 18:52:24;;;;;;;14.93;9.60;;;;;;;;;;4963833;28;20029;-94
2023/01/28 18:54:50;;;;;;;20.55;12.10;;;;;;;;;;4978628;23;20055;-96
2023/01/28 19:03:47;;;;;;;19.55;10.05;;;;;;;;;;5289426;23;20101;-96
2023/01/28 19:06:36;;;;;;;19.35;11.27;;;;;;;;;;4959117;29;20090;-96
2023/01/28 19:09:42;;;;;;;35.13;17.17;;;;;;;;;;5126033;23;20120;-96
2023/01/28 19:14:43;;;;;;;23.65;12.90;;;;;;;;;;5387451;23;20051;-96
2023/01/28 19:17:08;;;;;;;30.10;15.98;;;;;;;;;;4929664;29;20031;-96
2023/01/28 19:19:55;;;;;;;27.73;13.95;;;;;;;;;;4936262;29;20047;-96
2023/01/28 19:22:36;;;;;;;43.88;20.35;;;;;;;;;;4942978;29;20082;-96
2023/01/28 19:25:02;;;;;;;35.20;16.88;;;;;;;;;;4939510;29;20031;-96
2023/01/28 19:27:27;;;;;;;25.77;13.77;;;;;;;;;;4939952;29;20360;-93
2023/01/28 19:29:59;;;;;;;22.33;11.73;;;;;;;;;;4942177;29;20076;-96
2023/01/28 19:32:25;;;;;;;20.20;10.60;;;;;;;;;;4951537;29;20038;-96
2023/01/28 19:34:53;;;;;;;22.25;10.93;;;;;;;;;;4947090;29;20028;-96
2023/01/28 19:55:51;;;;;;;10.98;7.65;;;;;;;;;;5226119;23;20521;-96
2023/01/28 19:58:19;;;;;;;11.93;7.35;;;;;;;;;;4948654;29;20050;-94
2023/01/28 20:00:45;;;;;;;12.93;7.22;;;;;;;;;;4943851;29;20541;-94
2023/01/28 20:03:11;;;;;;;10.05;6.68;;;;;;;;;;4942870;29;20058;-95
2023/01/28 20:05:38;;;;;;;10.23;7.25;;;;;;;;;;4942617;29;20047;-95
2023/01/28 20:08:07;;;;;;;12.30;8.02;;;;;;;;;;4942756;29;20031;-95
2023/01/28 20:10:32;;;;;;;14.38;8.43;;;;;;;;;;4942820;29;20035;-94
2023/01/28 20:12:58;;;;;;;11.98;7.60;;;;;;;;;;4940888;29;20382;-94
2023/01/28 20:15:53;;;;;;;9.75;7.22;;;;;;;;;;4944129;29;20470;-96
2023/01/28 20:18:19;;;;;;;11.50;6.93;;;;;;;;;;4944079;29;20482;-96
2023/01/28 20:24:55;;;;;;;12.23;7.43;;;;;;;;;;4858659;29;20066;-96
2023/01/28 20:27:45;;;;;;;9.80;6.60;;;;;;;;;;4950809;29;20145;-96
2023/01/28 20:57:41;;;;;;;;;;;;;;;;;;;;;
2023/01/28 21:00:45;;;;;;;;;;;;;;;;;;;;;
2023/01/28 21:03:11;;;;;;;11.63;7.45;;;;;;;;;;4916727;29;20137;-96
2023/01/28 21:05:39;;;;;;;12.45;7.80;;;;;;;;;;4941139;29;20054;-96
2023/01/28 21:08:10;;;;;;;10.25;7.30;;;;;;;;;;4945650;29;20359;-96
2023/01/28 21:10:36;;;;;;;14.15;7.88;;;;;;;;;;4944044;29;20035;-96
2023/01/28 21:13:01;;;;;;;11.93;7.30;;;;;;;;;;4939850;29;20078;-96
2023/01/28 21:15:30;;;;;;;11.15;7.30;;;;;;;;;;4939381;29;20046;-96
2023/01/28 21:17:56;;;;;;;12.13;7.55;;;;;;;;;;4939341;29;20501;-95
2023/01/28 21:20:21;;;;;;;10.45;6.88;;;;;;;;;;4939488;29;20066;-96
2023/01/28 21:22:51;;;;;;;11.90;7.35;;;;;;;;;;4940048;29;20154;-95
2023/01/28 21:25:16;;;;;;;11.73;7.15;;;;;;;;;;4939778;29;20596;-95
2023/01/28 21:27:42;;;;;;;10.77;7.03;;;;;;;;;;4940139;29;20038;-95
2023/01/28 21:30:08;;;;;;;13.50;7.43;;;;;;;;;;4939950;29;20034;-95
2023/01/28 21:32:34;;;;;;;11.93;8.13;;;;;;;;;;4939985;29;20023;-94
2023/01/28 21:34:59;;;;;;;12.85;7.43;;;;;;;;;;4939985;29;20027;-95
2023/01/28 21:37:25;;;;;;;13.35;7.30;;;;;;;;;;4940207;29;20034;-93
2023/01/28 21:39:50;;;;;;;12.23;7.93;;;;;;;;;;4941084;29;20031;-95
2023/01/28 21:42:16;;;;;;;12.18;7.95;;;;;;;;;;4940946;29;20213;-94
2023/01/28 21:44:42;;;;;;;12.82;8.68;;;;;;;;;;4925503;29;20086;-95
2023/01/28 21:47:08;;;;;;;12.27;7.40;;;;;;;;;;4924207;29;20047;-94
2023/01/28 21:49:33;;;;;;;13.65;8.90;;;;;;;;;;4939293;29;20027;-95
2023/01/28 21:51:59;;;;;;;14.50;8.75;;;;;;;;;;4939096;29;20031;-96
2023/01/28 21:54:40;;;;;;;12.40;8.35;;;;;;;;;;4940748;29;20110;-96
2023/01/28 21:57:08;;;;;;;14.60;8.55;;;;;;;;;;4940778;29;20023;-96
2023/01/28 21:59:39;;;;;;;15.43;8.30;;;;;;;;;;4939253;29;20038;-96
2023/01/28 22:02:23;;;;;;;15.98;8.85;;;;;;;;;;4939701;29;20714;-96
2023/01/28 22:04:54;;;;;;;17.48;11.00;;;;;;;;;;4952609;29;20034;-96
2023/01/28 22:07:21;;;;;;;16.70;10.00;;;;;;;;;;4944839;29;20394;-96
2023/01/28 22:09:47;;;;;;;13.98;9.02;;;;;;;;;;4942115;29;20095;-95
2023/01/28 22:12:14;;;;;;;14.75;9.43;;;;;;;;;;4940057;29;20027;-94
2023/01/28 22:14:41;;;;;;;15.52;9.75;;;;;;;;;;4944427;29;20027;-95
2023/01/28 22:17:39;;;;;;;13.90;9.40;;;;;;;;;;5016691;23;20059;-96
2023/01/28 22:20:05;;;;;;;14.45;9.27;;;;;;;;;;4934471;29;20039;-96
2023/01/28 22:22:34;;;;;;;16.52;10.68;;;;;;;;;;5016471;23;20074;-96
2023/01/28 22:25:02;;;;;;;12.65;9.07;;;;;;;;;;4964878;29;20039;-96
2023/01/28 22:27:28;;;;;;;12.20;8.02;;;;;;;;;;4963196;29;20126;-96
2023/01/28 22:29:56;;;;;;;16.45;10.10;;;;;;;;;;4948403;29;20069;-96
2023/01/28 22:32:22;;;;;;;17.83;10.27;;;;;;;;;;4962104;28;20027;-96
2023/01/28 22:35:04;;;;;;;;;;;;;;;;;;;;;
2023/01/28 22:37:38;;;;;;;18.08;10.85;;;;;;;;;;4968366;29;20475;-96
2023/01/28 22:40:09;;;;;;;16.05;10.65;;;;;;;;;;4972148;29;20027;-96
2023/01/28 22:42:35;;;;;;;16.83;10.50;;;;;;;;;;4958719;29;20027;-94
2023/01/28 22:45:00;;;;;;;18.98;11.75;;;;;;;;;;4958145;29;20039;-96
2023/01/28 22:47:26;;;;;;;14.15;9.95;;;;;;;;;;4958192;29;20027;-96
2023/01/28 22:49:51;;;;;;;16.40;10.15;;;;;;;;;;4957723;29;20122;-91
